sensor_id;sensor_type;location;lat;lon;timestamp;P1;durP1;ratioP1;P2;durP2;ratioP2
61638;SDS011;47544;52.484;4.658;2024-02-28T00:00:03;10.02;;;4.50;;
61638;SDS011;47544;52.484;4.658;2024-02-28T00:00:15;9.73;;;4.30;;
61638;SDS011;47544;52.484;4.658;2024-02-28T00:00:26;9.50;;;4.30;;
61638;SDS011;47544;52.484;4.658;2024-02-28T00:00:37;8.45;;;4.22;;
61638;SDS011;47544;52.484;4.658;2024-02-28T00:00:51;7.00;;;3.90;;
61638;SDS011;47544;52.484;4.658;2024-02-28T00:01:02;8.85;;;4.25;;
61638;SDS011;47544;52.484;4.658;2024-02-28T00:01:15;8.10;;;4.00;;
61638;SDS011;47544;52.484;4.658;2024-02-28T00:01:26;6.28;;;3.20;;
61638;SDS011;47544;52.484;4.658;2024-02-28T00:01:37;6.88;;;3.40;;
61638;SDS011;47544;52.484;4.658;2024-02-28T00:01:48;7.80;;;3.63;;
61638;SDS011;47544;52.484;4.658;2024-02-28T00:01:59;8.43;;;3.90;;
61638;SDS011;47544;52.484;4.658;2024-02-28T00:02:10;8.50;;;3.95;;
61638;SDS011;47544;52.484;4.658;2024-02-28T00:02:21;7.85;;;3.58;;
61638;SDS011;47544;52.484;4.658;2024-02-28T00:02:34;7.45;;;3.60;;
61638;SDS011;47544;52.484;4.658;2024-02-28T00:02:45;7.97;;;3.75;;
61638;SDS011;47544;52.484;4.658;2024-02-28T00:02:57;8.65;;;3.70;;
61638;SDS011;47544;52.484;4.658;2024-02-28T00:03:08;8.85;;;3.45;;
61638;SDS011;47544;52.484;4.658;2024-02-28T00:03:19;8.00;;;3.45;;
61638;SDS011;47544;52.484;4.658;2024-02-28T00:03:32;7.60;;;3.60;;
61638;SDS011;47544;52.484;4.658;2024-02-28T00:03:45;7.40;;;3.60;;
61638;SDS011;47544;52.484;4.658;2024-02-28T00:03:58;8.13;;;3.45;;
61638;SDS011;47544;52.484;4.658;2024-02-28T00:04:09;8.30;;;3.47;;
61638;SDS011;47544;52.484;4.658;2024-02-28T00:04:20;9.35;;;3.58;;
61638;SDS011;47544;52.484;4.658;2024-02-28T00:04:31;9.13;;;3.75;;
61638;SDS011;47544;52.484;4.658;2024-02-28T00:04:44;8.02;;;3.70;;
61638;SDS011;47544;52.484;4.658;2024-02-28T00:04:55;6.15;;;3.42;;
61638;SDS011;47544;52.484;4.658;2024-02-28T00:05:06;5.85;;;3.53;;
61638;SDS011;47544;52.484;4.658;2024-02-28T00:05:17;6.35;;;3.72;;
61638;SDS011;47544;52.484;4.658;2024-02-28T00:05:28;6.97;;;3.72;;
61638;SDS011;47544;52.484;4.658;2024-02-28T00:05:39;7.30;;;3.70;;
61638;SDS011;47544;52.484;4.658;2024-02-28T00:05:50;6.40;;;3.50;;
61638;SDS011;47544;52.484;4.658;2024-02-28T00:06:03;7.07;;;3.50;;
61638;SDS011;47544;52.484;4.658;2024-02-28T00:06:15;7.85;;;3.65;;
61638;SDS011;47544;52.484;4.658;2024-02-28T00:06:26;7.93;;;3.80;;
61638;SDS011;47544;52.484;4.658;2024-02-28T00:06:38;7.80;;;3.72;;
61638;SDS011;47544;52.484;4.658;2024-02-28T00:06:50;8.05;;;3.60;;
61638;SDS011;47544;52.484;4.658;2024-02-28T00:07:03;8.50;;;3.53;;
61638;SDS011;47544;52.484;4.658;2024-02-28T00:07:14;7.80;;;3.60;;
61638;SDS011;47544;52.484;4.658;2024-02-28T00:07:24;7.50;;;3.70;;
61638;SDS011;47544;52.484;4.658;2024-02-28T00:07:35;7.88;;;3.90;;
61638;SDS011;47544;52.484;4.658;2024-02-28T00:07:46;7.95;;;3.97;;
61638;SDS011;47544;52.484;4.658;2024-02-28T00:07:57;7.97;;;3.90;;
61638;SDS011;47544;52.484;4.658;2024-02-28T00:08:08;8.65;;;3.90;;
61638;SDS011;47544;52.484;4.658;2024-02-28T00:08:19;8.35;;;3.90;;
61638;SDS011;47544;52.484;4.658;2024-02-28T00:08:32;6.97;;;3.80;;
61638;SDS011;47544;52.484;4.658;2024-02-28T00:08:43;8.25;;;3.95;;
61638;SDS011;47544;52.484;4.658;2024-02-28T00:08:54;8.38;;;3.88;;
61638;SDS011;47544;52.484;4.658;2024-02-28T00:09:05;8.75;;;3.90;;
61638;SDS011;47544;52.484;4.658;2024-02-28T00:09:21;7.53;;;3.80;;
61638;SDS011;47544;52.484;4.658;2024-02-28T00:09:32;7.80;;;4.05;;
61638;SDS011;47544;52.484;4.658;2024-02-28T00:09:43;8.60;;;4.10;;
61638;SDS011;47544;52.484;4.658;2024-02-28T00:09:54;8.02;;;4.05;;
61638;SDS011;47544;52.484;4.658;2024-02-28T00:10:08;8.68;;;3.80;;
61638;SDS011;47544;52.484;4.658;2024-02-28T00:10:26;8.60;;;3.92;;
61638;SDS011;47544;52.484;4.658;2024-02-28T00:10:38;8.93;;;3.80;;
61638;SDS011;47544;52.484;4.658;2024-02-28T00:10:49;9.18;;;3.70;;
61638;SDS011;47544;52.484;4.658;2024-02-28T00:11:00;9.93;;;3.80;;
61638;SDS011;47544;52.484;4.658;2024-02-28T00:11:11;10.48;;;4.18;;
61638;SDS011;47544;52.484;4.658;2024-02-28T00:11:22;10.73;;;4.25;;
61638;SDS011;47544;52.484;4.658;2024-02-28T00:11:33;10.38;;;4.13;;
61638;SDS011;47544;52.484;4.658;2024-02-28T00:11:44;10.07;;;4.20;;
61638;SDS011;47544;52.484;4.658;2024-02-28T00:11:55;9.60;;;4.30;;
61638;SDS011;47544;52.484;4.658;2024-02-28T00:12:06;10.38;;;4.50;;
61638;SDS011;47544;52.484;4.658;2024-02-28T00:12:19;9.63;;;4.13;;
61638;SDS011;47544;52.484;4.658;2024-02-28T00:12:30;7.32;;;4.10;;
61638;SDS011;47544;52.484;4.658;2024-02-28T00:12:42;8.20;;;4.18;;
61638;SDS011;47544;52.484;4.658;2024-02-28T00:12:53;9.77;;;4.50;;
61638;SDS011;47544;52.484;4.658;2024-02-28T00:13:04;10.27;;;4.40;;
61638;SDS011;47544;52.484;4.658;2024-02-28T00:13:15;10.27;;;4.47;;
61638;SDS011;47544;52.484;4.658;2024-02-28T00:13:26;10.23;;;4.57;;
61638;SDS011;47544;52.484;4.658;2024-02-28T00:13:37;9.50;;;4.60;;
61638;SDS011;47544;52.484;4.658;2024-02-28T00:13:48;9.60;;;4.60;;
61638;SDS011;47544;52.484;4.658;2024-02-28T00:14:00;10.23;;;4.35;;
61638;SDS011;47544;52.484;4.658;2024-02-28T00:14:12;9.80;;;4.15;;
61638;SDS011;47544;52.484;4.658;2024-02-28T00:14:24;7.32;;;4.10;;
61638;SDS011;47544;52.484;4.658;2024-02-28T00:14:38;7.63;;;4.25;;
61638;SDS011;47544;52.484;4.658;2024-02-28T00:14:49;8.48;;;4.30;;
61638;SDS011;47544;52.484;4.658;2024-02-28T00:15:00;7.57;;;4.10;;
61638;SDS011;47544;52.484;4.658;2024-02-28T00:15:11;7.57;;;4.10;;
61638;SDS011;47544;52.484;4.658;2024-02-28T00:15:22;9.20;;;4.43;;
61638;SDS011;47544;52.484;4.658;2024-02-28T00:15:33;11.13;;;4.72;;
61638;SDS011;47544;52.484;4.658;2024-02-28T00:15:44;12.13;;;4.88;;
61638;SDS011;47544;52.484;4.658;2024-02-28T00:15:57;12.60;;;4.63;;
61638;SDS011;47544;52.484;4.658;2024-02-28T00:16:08;9.80;;;4.50;;
61638;SDS011;47544;52.484;4.658;2024-02-28T00:16:20;9.07;;;4.50;;
61638;SDS011;47544;52.484;4.658;2024-02-28T00:16:32;7.70;;;4.40;;
61638;SDS011;47544;52.484;4.658;2024-02-28T00:16:43;9.25;;;4.68;;
61638;SDS011;47544;52.484;4.658;2024-02-28T00:16:54;9.00;;;4.68;;
61638;SDS011;47544;52.484;4.658;2024-02-28T00:17:05;9.05;;;4.63;;
61638;SDS011;47544;52.484;4.658;2024-02-28T00:17:16;8.43;;;4.32;;
61638;SDS011;47544;52.484;4.658;2024-02-28T00:17:29;10.13;;;4.40;;
61638;SDS011;47544;52.484;4.658;2024-02-28T00:17:40;9.52;;;4.50;;
61638;SDS011;47544;52.484;4.658;2024-02-28T00:17:51;9.98;;;4.57;;
61638;SDS011;47544;52.484;4.658;2024-02-28T00:18:02;8.00;;;4.47;;
61638;SDS011;47544;52.484;4.658;2024-02-28T00:18:14;8.38;;;4.38;;
61638;SDS011;47544;52.484;4.658;2024-02-28T00:18:26;8.02;;;4.32;;
61638;SDS011;47544;52.484;4.658;2024-02-28T00:18:37;9.27;;;4.47;;
61638;SDS011;47544;52.484;4.658;2024-02-28T00:18:47;9.88;;;4.50;;
61638;SDS011;47544;52.484;4.658;2024-02-28T00:18:58;9.93;;;4.53;;
61638;SDS011;47544;52.484;4.658;2024-02-28T00:19:09;9.52;;;4.38;;
61638;SDS011;47544;52.484;4.658;2024-02-28T00:19:23;9.32;;;4.30;;
61638;SDS011;47544;52.484;4.658;2024-02-28T00:19:35;9.40;;;4.72;;
61638;SDS011;47544;52.484;4.658;2024-02-28T00:19:46;8.88;;;4.80;;
61638;SDS011;47544;52.484;4.658;2024-02-28T00:19:57;8.27;;;4.70;;
61638;SDS011;47544;52.484;4.658;2024-02-28T00:20:09;8.50;;;4.70;;
61638;SDS011;47544;52.484;4.658;2024-02-28T00:20:20;9.07;;;4.85;;
61638;SDS011;47544;52.484;4.658;2024-02-28T00:20:32;9.85;;;4.57;;
61638;SDS011;47544;52.484;4.658;2024-02-28T00:20:43;9.48;;;4.60;;
61638;SDS011;47544;52.484;4.658;2024-02-28T00:20:55;8.55;;;4.50;;
61638;SDS011;47544;52.484;4.658;2024-02-28T00:21:05;8.15;;;4.60;;
61638;SDS011;47544;52.484;4.658;2024-02-28T00:21:16;8.35;;;4.60;;
61638;SDS011;47544;52.484;4.658;2024-02-28T00:21:29;9.32;;;4.53;;
61638;SDS011;47544;52.484;4.658;2024-02-28T00:21:40;10.25;;;4.57;;
61638;SDS011;47544;52.484;4.658;2024-02-28T00:21:51;10.70;;;4.60;;
61638;SDS011;47544;52.484;4.658;2024-02-28T00:22:02;9.85;;;4.90;;
61638;SDS011;47544;52.484;4.658;2024-02-28T00:22:13;8.45;;;4.68;;
61638;SDS011;47544;52.484;4.658;2024-02-28T00:22:24;10.32;;;4.97;;
61638;SDS011;47544;52.484;4.658;2024-02-28T00:22:36;10.68;;;5.00;;
61638;SDS011;47544;52.484;4.658;2024-02-28T00:22:47;10.50;;;5.07;;
61638;SDS011;47544;52.484;4.658;2024-02-28T00:22:58;8.53;;;4.87;;
61638;SDS011;47544;52.484;4.658;2024-02-28T00:23:09;9.40;;;5.05;;
61638;SDS011;47544;52.484;4.658;2024-02-28T00:23:20;8.98;;;5.03;;
61638;SDS011;47544;52.484;4.658;2024-02-28T00:23:31;9.27;;;5.00;;
61638;SDS011;47544;52.484;4.658;2024-02-28T00:23:43;8.85;;;4.82;;
61638;SDS011;47544;52.484;4.658;2024-02-28T00:23:54;9.02;;;4.60;;
61638;SDS011;47544;52.484;4.658;2024-02-28T00:24:04;9.07;;;4.57;;
61638;SDS011;47544;52.484;4.658;2024-02-28T00:24:16;8.80;;;4.40;;
61638;SDS011;47544;52.484;4.658;2024-02-28T00:24:29;8.32;;;4.47;;
61638;SDS011;47544;52.484;4.658;2024-02-28T00:24:41;8.88;;;4.75;;
61638;SDS011;47544;52.484;4.658;2024-02-28T00:24:52;9.13;;;4.95;;
61638;SDS011;47544;52.484;4.658;2024-02-28T00:25:03;9.88;;;4.80;;
61638;SDS011;47544;52.484;4.658;2024-02-28T00:25:17;9.52;;;4.72;;
61638;SDS011;47544;52.484;4.658;2024-02-28T00:25:27;9.40;;;4.80;;
61638;SDS011;47544;52.484;4.658;2024-02-28T00:25:38;9.15;;;4.93;;
61638;SDS011;47544;52.484;4.658;2024-02-28T00:25:49;9.20;;;4.85;;
61638;SDS011;47544;52.484;4.658;2024-02-28T00:26:03;9.25;;;4.75;;
61638;SDS011;47544;52.484;4.658;2024-02-28T00:26:15;10.48;;;4.68;;
61638;SDS011;47544;52.484;4.658;2024-02-28T00:26:26;10.27;;;4.80;;
61638;SDS011;47544;52.484;4.658;2024-02-28T00:26:37;11.13;;;4.93;;
61638;SDS011;47544;52.484;4.658;2024-02-28T00:26:50;10.07;;;4.75;;
61638;SDS011;47544;52.484;4.658;2024-02-28T00:27:01;8.85;;;4.53;;
61638;SDS011;47544;52.484;4.658;2024-02-28T00:27:12;8.35;;;4.47;;
61638;SDS011;47544;52.484;4.658;2024-02-28T00:27:23;8.05;;;4.68;;
61638;SDS011;47544;52.484;4.658;2024-02-28T00:27:34;10.68;;;4.82;;
61638;SDS011;47544;52.484;4.658;2024-02-28T00:27:45;10.68;;;4.70;;
61638;SDS011;47544;52.484;4.658;2024-02-28T00:27:57;10.77;;;4.90;;
61638;SDS011;47544;52.484;4.658;2024-02-28T00:28:10;9.05;;;5.18;;
61638;SDS011;47544;52.484;4.658;2024-02-28T00:28:23;9.60;;;5.10;;
61638;SDS011;47544;52.484;4.658;2024-02-28T00:28:34;10.32;;;4.90;;
61638;SDS011;47544;52.484;4.658;2024-02-28T00:28:45;10.35;;;4.82;;
61638;SDS011;47544;52.484;4.658;2024-02-28T00:28:56;9.43;;;4.63;;
61638;SDS011;47544;52.484;4.658;2024-02-28T00:29:07;9.50;;;4.43;;
61638;SDS011;47544;52.484;4.658;2024-02-28T00:29:18;8.63;;;4.30;;
61638;SDS011;47544;52.484;4.658;2024-02-28T00:29:29;9.35;;;4.70;;
61638;SDS011;47544;52.484;4.658;2024-02-28T00:29:41;10.52;;;4.93;;
61638;SDS011;47544;52.484;4.658;2024-02-28T00:29:52;10.45;;;4.93;;
61638;SDS011;47544;52.484;4.658;2024-02-28T00:30:06;9.75;;;4.68;;
61638;SDS011;47544;52.484;4.658;2024-02-28T00:30:17;10.02;;;4.55;;
61638;SDS011;47544;52.484;4.658;2024-02-28T00:30:28;10.88;;;4.72;;
61638;SDS011;47544;52.484;4.658;2024-02-28T00:30:39;11.00;;;5.00;;
61638;SDS011;47544;52.484;4.658;2024-02-28T00:30:51;10.63;;;4.97;;
61638;SDS011;47544;52.484;4.658;2024-02-28T00:31:04;8.93;;;4.70;;
61638;SDS011;47544;52.484;4.658;2024-02-28T00:31:16;10.13;;;4.68;;
61638;SDS011;47544;52.484;4.658;2024-02-28T00:31:27;10.23;;;4.88;;
61638;SDS011;47544;52.484;4.658;2024-02-28T00:31:38;7.82;;;4.53;;
61638;SDS011;47544;52.484;4.658;2024-02-28T00:31:49;7.80;;;4.60;;
61638;SDS011;47544;52.484;4.658;2024-02-28T00:32:01;8.40;;;4.32;;
61638;SDS011;47544;52.484;4.658;2024-02-28T00:32:15;8.43;;;4.15;;
61638;SDS011;47544;52.484;4.658;2024-02-28T00:32:26;7.72;;;3.90;;
61638;SDS011;47544;52.484;4.658;2024-02-28T00:32:39;8.00;;;4.30;;
61638;SDS011;47544;52.484;4.658;2024-02-28T00:32:52;9.40;;;4.53;;
61638;SDS011;47544;52.484;4.658;2024-02-28T00:33:06;9.23;;;4.57;;
61638;SDS011;47544;52.484;4.658;2024-02-28T00:33:17;8.90;;;4.50;;
61638;SDS011;47544;52.484;4.658;2024-02-28T00:33:28;8.88;;;4.70;;
61638;SDS011;47544;52.484;4.658;2024-02-28T00:33:38;9.43;;;4.55;;
61638;SDS011;47544;52.484;4.658;2024-02-28T00:33:49;9.77;;;4.60;;
61638;SDS011;47544;52.484;4.658;2024-02-28T00:34:00;10.15;;;4.63;;
61638;SDS011;47544;52.484;4.658;2024-02-28T00:34:11;10.98;;;4.68;;
61638;SDS011;47544;52.484;4.658;2024-02-28T00:34:22;9.63;;;4.45;;
61638;SDS011;47544;52.484;4.658;2024-02-28T00:34:33;8.63;;;4.20;;
61638;SDS011;47544;52.484;4.658;2024-02-28T00:34:44;8.27;;;4.18;;
61638;SDS011;47544;52.484;4.658;2024-02-28T00:34:56;9.70;;;4.47;;
61638;SDS011;47544;52.484;4.658;2024-02-28T00:35:08;8.88;;;4.50;;
61638;SDS011;47544;52.484;4.658;2024-02-28T00:35:20;8.80;;;4.43;;
61638;SDS011;47544;52.484;4.658;2024-02-28T00:35:31;8.45;;;4.55;;
61638;SDS011;47544;52.484;4.658;2024-02-28T00:35:43;8.43;;;4.45;;
61638;SDS011;47544;52.484;4.658;2024-02-28T00:35:54;8.73;;;4.40;;
61638;SDS011;47544;52.484;4.658;2024-02-28T00:36:05;9.57;;;4.40;;
61638;SDS011;47544;52.484;4.658;2024-02-28T00:36:16;9.80;;;4.70;;
61638;SDS011;47544;52.484;4.658;2024-02-28T00:36:28;9.30;;;4.70;;
61638;SDS011;47544;52.484;4.658;2024-02-28T00:36:39;9.77;;;4.50;;
61638;SDS011;47544;52.484;4.658;2024-02-28T00:36:50;9.85;;;4.30;;
61638;SDS011;47544;52.484;4.658;2024-02-28T00:37:01;10.25;;;4.28;;
61638;SDS011;47544;52.484;4.658;2024-02-28T00:37:12;9.70;;;4.20;;
61638;SDS011;47544;52.484;4.658;2024-02-28T00:37:23;9.30;;;4.13;;
61638;SDS011;47544;52.484;4.658;2024-02-28T00:37:34;8.43;;;4.20;;
61638;SDS011;47544;52.484;4.658;2024-02-28T00:37:45;8.80;;;4.22;;
61638;SDS011;47544;52.484;4.658;2024-02-28T00:37:56;9.45;;;4.40;;
61638;SDS011;47544;52.484;4.658;2024-02-28T00:38:07;9.85;;;4.50;;
61638;SDS011;47544;52.484;4.658;2024-02-28T00:38:18;9.30;;;4.40;;
61638;SDS011;47544;52.484;4.658;2024-02-28T00:38:31;8.40;;;4.43;;
61638;SDS011;47544;52.484;4.658;2024-02-28T00:38:42;9.10;;;4.50;;
61638;SDS011;47544;52.484;4.658;2024-02-28T00:38:53;9.38;;;4.43;;
61638;SDS011;47544;52.484;4.658;2024-02-28T00:39:04;8.70;;;4.30;;
61638;SDS011;47544;52.484;4.658;2024-02-28T00:39:15;8.45;;;4.22;;
61638;SDS011;47544;52.484;4.658;2024-02-28T00:39:27;8.30;;;4.30;;
61638;SDS011;47544;52.484;4.658;2024-02-28T00:39:40;8.80;;;4.40;;
61638;SDS011;47544;52.484;4.658;2024-02-28T00:39:51;9.18;;;4.22;;
61638;SDS011;47544;52.484;4.658;2024-02-28T00:40:03;9.40;;;4.07;;
61638;SDS011;47544;52.484;4.658;2024-02-28T00:40:14;9.07;;;3.70;;
61638;SDS011;47544;52.484;4.658;2024-02-28T00:40:25;8.55;;;3.90;;
61638;SDS011;47544;52.484;4.658;2024-02-28T00:40:39;8.98;;;4.25;;
61638;SDS011;47544;52.484;4.658;2024-02-28T00:40:50;9.32;;;4.47;;
61638;SDS011;47544;52.484;4.658;2024-02-28T00:41:01;8.85;;;4.25;;
61638;SDS011;47544;52.484;4.658;2024-02-28T00:41:12;8.23;;;3.97;;
61638;SDS011;47544;52.484;4.658;2024-02-28T00:41:23;8.13;;;3.50;;
61638;SDS011;47544;52.484;4.658;2024-02-28T00:41:34;9.20;;;3.70;;
61638;SDS011;47544;52.484;4.658;2024-02-28T00:41:46;9.25;;;3.92;;
61638;SDS011;47544;52.484;4.658;2024-02-28T00:41:57;9.77;;;3.92;;
61638;SDS011;47544;52.484;4.658;2024-02-28T00:42:08;8.57;;;3.90;;
61638;SDS011;47544;52.484;4.658;2024-02-28T00:42:19;8.07;;;4.00;;
61638;SDS011;47544;52.484;4.658;2024-02-28T00:42:30;7.22;;;3.97;;
61638;SDS011;47544;52.484;4.658;2024-02-28T00:42:41;6.68;;;3.90;;
61638;SDS011;47544;52.484;4.658;2024-02-28T00:42:52;6.93;;;3.80;;
61638;SDS011;47544;52.484;4.658;2024-02-28T00:43:06;7.68;;;4.05;;
61638;SDS011;47544;52.484;4.658;2024-02-28T00:43:17;8.57;;;4.05;;
61638;SDS011;47544;52.484;4.658;2024-02-28T00:43:28;7.88;;;3.78;;
61638;SDS011;47544;52.484;4.658;2024-02-28T00:43:39;8.05;;;3.60;;
61638;SDS011;47544;52.484;4.658;2024-02-28T00:43:58;10.45;;;4.15;;
61638;SDS011;47544;52.484;4.658;2024-02-28T00:44:09;10.70;;;4.30;;
61638;SDS011;47544;52.484;4.658;2024-02-28T00:44:20;10.15;;;4.25;;
61638;SDS011;47544;52.484;4.658;2024-02-28T00:44:31;8.52;;;3.97;;
61638;SDS011;47544;52.484;4.658;2024-02-28T00:44:42;7.10;;;3.90;;
61638;SDS011;47544;52.484;4.658;2024-02-28T00:44:53;6.30;;;3.78;;
61638;SDS011;47544;52.484;4.658;2024-02-28T00:45:05;7.20;;;3.80;;
61638;SDS011;47544;52.484;4.658;2024-02-28T00:45:19;7.82;;;4.00;;
61638;SDS011;47544;52.484;4.658;2024-02-28T00:45:33;8.07;;;4.18;;
61638;SDS011;47544;52.484;4.658;2024-02-28T00:45:44;7.65;;;4.13;;
61638;SDS011;47544;52.484;4.658;2024-02-28T00:45:55;8.30;;;4.10;;
61638;SDS011;47544;52.484;4.658;2024-02-28T00:46:07;8.20;;;4.00;;
61638;SDS011;47544;52.484;4.658;2024-02-28T00:46:23;7.93;;;3.92;;
61638;SDS011;47544;52.484;4.658;2024-02-28T00:46:35;7.72;;;3.90;;
61638;SDS011;47544;52.484;4.658;2024-02-28T00:46:46;7.05;;;3.90;;
61638;SDS011;47544;52.484;4.658;2024-02-28T00:46:56;7.50;;;3.78;;
61638;SDS011;47544;52.484;4.658;2024-02-28T00:47:07;7.80;;;3.72;;
61638;SDS011;47544;52.484;4.658;2024-02-28T00:47:19;9.07;;;3.90;;
61638;SDS011;47544;52.484;4.658;2024-02-28T00:47:30;8.95;;;3.83;;
61638;SDS011;47544;52.484;4.658;2024-02-28T00:47:41;8.65;;;3.90;;
61638;SDS011;47544;52.484;4.658;2024-02-28T00:48:00;8.45;;;4.20;;
61638;SDS011;47544;52.484;4.658;2024-02-28T00:48:11;8.30;;;3.90;;
61638;SDS011;47544;52.484;4.658;2024-02-28T00:48:22;8.05;;;3.80;;
61638;SDS011;47544;52.484;4.658;2024-02-28T00:48:33;8.40;;;3.80;;
61638;SDS011;47544;52.484;4.658;2024-02-28T00:48:44;8.75;;;4.10;;
61638;SDS011;47544;52.484;4.658;2024-02-28T00:48:55;8.02;;;4.10;;
61638;SDS011;47544;52.484;4.658;2024-02-28T00:49:07;7.72;;;4.00;;
61638;SDS011;47544;52.484;4.658;2024-02-28T00:49:18;8.23;;;4.10;;
61638;SDS011;47544;52.484;4.658;2024-02-28T00:49:29;8.48;;;4.03;;
61638;SDS011;47544;52.484;4.658;2024-02-28T00:49:40;8.75;;;4.18;;
61638;SDS011;47544;52.484;4.658;2024-02-28T00:49:51;7.82;;;3.90;;
61638;SDS011;47544;52.484;4.658;2024-02-28T00:50:02;7.05;;;3.90;;
61638;SDS011;47544;52.484;4.658;2024-02-28T00:50:13;6.70;;;3.70;;
61638;SDS011;47544;52.484;4.658;2024-02-28T00:50:24;7.13;;;3.97;;
61638;SDS011;47544;52.484;4.658;2024-02-28T00:50:36;7.65;;;4.00;;
61638;SDS011;47544;52.484;4.658;2024-02-28T00:50:47;8.10;;;4.28;;
61638;SDS011;47544;52.484;4.658;2024-02-28T00:50:58;7.70;;;3.97;;
61638;SDS011;47544;52.484;4.658;2024-02-28T00:51:09;7.57;;;3.55;;
61638;SDS011;47544;52.484;4.658;2024-02-28T00:51:20;6.75;;;3.22;;
61638;SDS011;47544;52.484;4.658;2024-02-28T00:51:31;7.38;;;3.38;;
61638;SDS011;47544;52.484;4.658;2024-02-28T00:51:42;7.10;;;3.50;;
61638;SDS011;47544;52.484;4.658;2024-02-28T00:51:53;7.82;;;3.90;;
61638;SDS011;47544;52.484;4.658;2024-02-28T00:52:05;7.95;;;3.95;;
61638;SDS011;47544;52.484;4.658;2024-02-28T00:52:16;8.93;;;4.00;;
61638;SDS011;47544;52.484;4.658;2024-02-28T00:52:27;9.00;;;3.67;;
61638;SDS011;47544;52.484;4.658;2024-02-28T00:52:39;8.75;;;3.60;;
61638;SDS011;47544;52.484;4.658;2024-02-28T00:52:50;8.50;;;3.63;;
61638;SDS011;47544;52.484;4.658;2024-02-28T00:53:01;9.43;;;3.90;;
61638;SDS011;47544;52.484;4.658;2024-02-28T00:53:13;9.30;;;3.60;;
61638;SDS011;47544;52.484;4.658;2024-02-28T00:53:25;7.82;;;3.20;;
61638;SDS011;47544;52.484;4.658;2024-02-28T00:53:38;8.10;;;3.33;;
61638;SDS011;47544;52.484;4.658;2024-02-28T00:53:51;8.13;;;3.80;;
61638;SDS011;47544;52.484;4.658;2024-02-28T00:54:03;8.18;;;3.70;;
61638;SDS011;47544;52.484;4.658;2024-02-28T00:54:19;8.18;;;3.83;;
61638;SDS011;47544;52.484;4.658;2024-02-28T00:54:33;8.50;;;4.10;;
61638;SDS011;47544;52.484;4.658;2024-02-28T00:54:44;8.63;;;4.05;;
61638;SDS011;47544;52.484;4.658;2024-02-28T00:54:56;8.30;;;3.83;;
61638;SDS011;47544;52.484;4.658;2024-02-28T00:55:07;8.32;;;3.95;;
61638;SDS011;47544;52.484;4.658;2024-02-28T00:55:18;8.07;;;4.00;;
61638;SDS011;47544;52.484;4.658;2024-02-28T00:55:29;8.25;;;4.07;;
61638;SDS011;47544;52.484;4.658;2024-02-28T00:55:40;8.05;;;3.83;;
61638;SDS011;47544;52.484;4.658;2024-02-28T00:55:52;8.93;;;3.80;;
61638;SDS011;47544;52.484;4.658;2024-02-28T00:56:05;10.38;;;3.90;;
61638;SDS011;47544;52.484;4.658;2024-02-28T00:56:18;9.30;;;3.75;;
61638;SDS011;47544;52.484;4.658;2024-02-28T00:56:34;7.50;;;3.53;;
61638;SDS011;47544;52.484;4.658;2024-02-28T00:56:45;5.95;;;3.30;;
61638;SDS011;47544;52.484;4.658;2024-02-28T00:56:58;5.95;;;3.25;;
61638;SDS011;47544;52.484;4.658;2024-02-28T00:57:10;6.13;;;3.20;;
61638;SDS011;47544;52.484;4.658;2024-02-28T00:57:21;6.55;;;3.10;;
61638;SDS011;47544;52.484;4.658;2024-02-28T00:57:32;8.63;;;3.40;;
61638;SDS011;47544;52.484;4.658;2024-02-28T00:57:43;8.65;;;3.33;;
61638;SDS011;47544;52.484;4.658;2024-02-28T00:57:55;7.93;;;3.63;;
61638;SDS011;47544;52.484;4.658;2024-02-28T00:58:06;6.53;;;3.60;;
61638;SDS011;47544;52.484;4.658;2024-02-28T00:58:17;6.97;;;3.70;;
61638;SDS011;47544;52.484;4.658;2024-02-28T00:58:28;8.68;;;3.75;;
61638;SDS011;47544;52.484;4.658;2024-02-28T00:58:40;9.75;;;3.83;;
61638;SDS011;47544;52.484;4.658;2024-02-28T00:58:51;8.80;;;3.63;;
61638;SDS011;47544;52.484;4.658;2024-02-28T00:59:02;7.68;;;3.70;;
61638;SDS011;47544;52.484;4.658;2024-02-28T00:59:13;7.47;;;3.60;;
61638;SDS011;47544;52.484;4.658;2024-02-28T00:59:24;7.63;;;3.65;;
61638;SDS011;47544;52.484;4.658;2024-02-28T00:59:36;7.00;;;3.55;;
61638;SDS011;47544;52.484;4.658;2024-02-28T00:59:47;7.07;;;3.58;;
61638;SDS011;47544;52.484;4.658;2024-02-28T00:59:59;8.02;;;3.67;;
61638;SDS011;47544;52.484;4.658;2024-02-28T01:00:11;7.70;;;3.67;;
61638;SDS011;47544;52.484;4.658;2024-02-28T01:00:22;6.80;;;3.40;;
61638;SDS011;47544;52.484;4.658;2024-02-28T01:00:33;6.35;;;3.28;;
61638;SDS011;47544;52.484;4.658;2024-02-28T01:00:44;6.55;;;3.45;;
61638;SDS011;47544;52.484;4.658;2024-02-28T01:00:55;6.97;;;3.70;;
61638;SDS011;47544;52.484;4.658;2024-02-28T01:01:07;9.23;;;3.90;;
61638;SDS011;47544;52.484;4.658;2024-02-28T01:01:18;9.77;;;3.67;;
61638;SDS011;47544;52.484;4.658;2024-02-28T01:01:29;9.57;;;3.47;;
61638;SDS011;47544;52.484;4.658;2024-02-28T01:01:40;7.70;;;3.40;;
61638;SDS011;47544;52.484;4.658;2024-02-28T01:01:53;8.02;;;3.60;;
61638;SDS011;47544;52.484;4.658;2024-02-28T01:02:05;8.00;;;3.72;;
61638;SDS011;47544;52.484;4.658;2024-02-28T01:02:16;7.72;;;3.78;;
61638;SDS011;47544;52.484;4.658;2024-02-28T01:02:27;7.07;;;3.60;;
61638;SDS011;47544;52.484;4.658;2024-02-28T01:02:39;7.60;;;3.63;;
61638;SDS011;47544;52.484;4.658;2024-02-28T01:02:51;7.55;;;3.63;;
61638;SDS011;47544;52.484;4.658;2024-02-28T01:03:02;8.95;;;3.63;;
61638;SDS011;47544;52.484;4.658;2024-02-28T01:03:14;9.05;;;3.67;;
61638;SDS011;47544;52.484;4.658;2024-02-28T01:03:26;8.68;;;3.35;;
61638;SDS011;47544;52.484;4.658;2024-02-28T01:03:37;8.63;;;3.33;;
61638;SDS011;47544;52.484;4.658;2024-02-28T01:03:49;8.43;;;3.45;;
61638;SDS011;47544;52.484;4.658;2024-02-28T01:04:00;7.65;;;3.60;;
61638;SDS011;47544;52.484;4.658;2024-02-28T01:04:11;7.32;;;3.60;;
61638;SDS011;47544;52.484;4.658;2024-02-28T01:04:24;7.57;;;3.35;;
61638;SDS011;47544;52.484;4.658;2024-02-28T01:04:35;7.75;;;3.15;;
61638;SDS011;47544;52.484;4.658;2024-02-28T01:04:46;7.30;;;3.35;;
61638;SDS011;47544;52.484;4.658;2024-02-28T01:04:57;6.57;;;3.72;;
61638;SDS011;47544;52.484;4.658;2024-02-28T01:05:08;7.93;;;3.90;;
61638;SDS011;47544;52.484;4.658;2024-02-28T01:05:19;8.70;;;4.00;;
61638;SDS011;47544;52.484;4.658;2024-02-28T01:05:31;9.05;;;3.85;;
61638;SDS011;47544;52.484;4.658;2024-02-28T01:05:43;8.13;;;3.67;;
61638;SDS011;47544;52.484;4.658;2024-02-28T01:05:57;7.72;;;3.50;;
61638;SDS011;47544;52.484;4.658;2024-02-28T01:06:11;8.35;;;3.60;;
61638;SDS011;47544;52.484;4.658;2024-02-28T01:06:22;8.77;;;3.60;;
61638;SDS011;47544;52.484;4.658;2024-02-28T01:06:33;8.02;;;3.47;;
61638;SDS011;47544;52.484;4.658;2024-02-28T01:06:44;7.93;;;3.40;;
61638;SDS011;47544;52.484;4.658;2024-02-28T01:06:55;8.27;;;3.80;;
61638;SDS011;47544;52.484;4.658;2024-02-28T01:07:06;7.38;;;3.90;;
61638;SDS011;47544;52.484;4.658;2024-02-28T01:07:17;7.38;;;3.65;;
61638;SDS011;47544;52.484;4.658;2024-02-28T01:07:31;7.60;;;3.72;;
61638;SDS011;47544;52.484;4.658;2024-02-28T01:07:41;7.45;;;3.95;;
61638;SDS011;47544;52.484;4.658;2024-02-28T01:07:52;7.07;;;3.85;;
61638;SDS011;47544;52.484;4.658;2024-02-28T01:08:04;6.95;;;3.42;;
61638;SDS011;47544;52.484;4.658;2024-02-28T01:08:15;7.05;;;3.42;;
61638;SDS011;47544;52.484;4.658;2024-02-28T01:08:27;7.07;;;3.50;;
61638;SDS011;47544;52.484;4.658;2024-02-28T01:08:38;7.22;;;3.50;;
61638;SDS011;47544;52.484;4.658;2024-02-28T01:08:50;7.07;;;3.50;;
61638;SDS011;47544;52.484;4.658;2024-02-28T01:09:01;8.15;;;3.65;;
61638;SDS011;47544;52.484;4.658;2024-02-28T01:09:12;8.60;;;3.70;;
61638;SDS011;47544;52.484;4.658;2024-02-28T01:09:23;8.98;;;3.50;;
61638;SDS011;47544;52.484;4.658;2024-02-28T01:09:35;7.70;;;3.15;;